Welcome to the New NWS' Forecast!
Most changes are behind the scenes, but click here for differences you might notice.

Terminal Aerodrome Forecast (TAF)

Issued by National Weather Service (NWS)

                            
042 
FTUS42 KMFL 141141
TAFMIA
TAF
KMIA 141141Z 1412/1518 10006KT P6SM VCSH SCT025 BKN250
     FM141700 12010KT P6SM VCTS SCT030CB SCT050 BKN250
     FM142000 11010KT P6SM SCT025 BKN250
     FM150100 10006KT P6SM FEW050 SCT250
     FM151400 11010KT P6SM SCT035 SCT250=